sensor_id;sensor_type;location;lat;lon;timestamp;P1;durP1;ratioP1;P2;durP2;ratioP2
45642;SDS011;31358;46.008;11.144;2024-03-06T00:02:00;0.52;;;0.32;;
45642;SDS011;31358;46.008;11.144;2024-03-06T00:04:26;2.30;;;0.55;;
45642;SDS011;31358;46.008;11.144;2024-03-06T00:06:52;2.13;;;0.45;;
45642;SDS011;31358;46.008;11.144;2024-03-06T00:09:19;2.95;;;0.60;;
45642;SDS011;31358;46.008;11.144;2024-03-06T00:11:44;5.45;;;1.10;;
45642;SDS011;31358;46.008;11.144;2024-03-06T00:14:10;4.07;;;1.77;;
45642;SDS011;31358;46.008;11.144;2024-03-06T00:16:37;6.07;;;2.25;;
45642;SDS011;31358;46.008;11.144;2024-03-06T00:19:03;3.88;;;1.58;;
45642;SDS011;31358;46.008;11.144;2024-03-06T00:21:29;3.88;;;1.75;;
45642;SDS011;31358;46.008;11.144;2024-03-06T00:23:55;2.83;;;1.55;;
45642;SDS011;31358;46.008;11.144;2024-03-06T00:26:21;6.30;;;1.98;;
45642;SDS011;31358;46.008;11.144;2024-03-06T00:28:47;5.38;;;2.28;;
45642;SDS011;31358;46.008;11.144;2024-03-06T00:31:12;5.68;;;2.47;;
45642;SDS011;31358;46.008;11.144;2024-03-06T00:33:39;6.80;;;3.10;;
45642;SDS011;31358;46.008;11.144;2024-03-06T00:36:05;4.45;;;2.63;;
45642;SDS011;31358;46.008;11.144;2024-03-06T00:38:31;4.97;;;2.80;;
45642;SDS011;31358;46.008;11.144;2024-03-06T00:40:57;5.25;;;3.28;;
45642;SDS011;31358;46.008;11.144;2024-03-06T00:43:23;3.90;;;2.40;;
45642;SDS011;31358;46.008;11.144;2024-03-06T00:45:49;5.05;;;2.50;;
45642;SDS011;31358;46.008;11.144;2024-03-06T00:48:14;5.50;;;2.75;;
45642;SDS011;31358;46.008;11.144;2024-03-06T00:50:40;3.65;;;2.40;;
45642;SDS011;31358;46.008;11.144;2024-03-06T00:53:06;5.90;;;2.60;;
45642;SDS011;31358;46.008;11.144;2024-03-06T00:55:31;3.72;;;2.35;;
45642;SDS011;31358;46.008;11.144;2024-03-06T00:57:57;3.92;;;1.88;;
45642;SDS011;31358;46.008;11.144;2024-03-06T01:00:23;5.45;;;1.67;;
45642;SDS011;31358;46.008;11.144;2024-03-06T01:02:48;4.05;;;2.35;;
45642;SDS011;31358;46.008;11.144;2024-03-06T01:05:14;3.05;;;1.67;;
45642;SDS011;31358;46.008;11.144;2024-03-06T01:07:40;3.58;;;2.22;;
45642;SDS011;31358;46.008;11.144;2024-03-06T01:10:06;3.20;;;1.88;;
45642;SDS011;31358;46.008;11.144;2024-03-06T01:12:33;2.85;;;1.83;;
45642;SDS011;31358;46.008;11.144;2024-03-06T01:15:00;4.18;;;2.30;;
45642;SDS011;31358;46.008;11.144;2024-03-06T01:17:25;5.15;;;3.20;;
45642;SDS011;31358;46.008;11.144;2024-03-06T01:19:51;4.80;;;2.50;;
45642;SDS011;31358;46.008;11.144;2024-03-06T01:22:17;6.70;;;3.13;;
45642;SDS011;31358;46.008;11.144;2024-03-06T01:24:43;3.15;;;1.88;;
45642;SDS011;31358;46.008;11.144;2024-03-06T01:27:09;4.03;;;1.85;;
45642;SDS011;31358;46.008;11.144;2024-03-06T01:29:35;3.88;;;1.92;;
45642;SDS011;31358;46.008;11.144;2024-03-06T01:32:01;2.40;;;1.55;;
45642;SDS011;31358;46.008;11.144;2024-03-06T01:34:27;4.13;;;2.10;;
45642;SDS011;31358;46.008;11.144;2024-03-06T01:36:53;4.43;;;2.28;;
45642;SDS011;31358;46.008;11.144;2024-03-06T01:39:19;3.75;;;1.95;;
45642;SDS011;31358;46.008;11.144;2024-03-06T01:41:48;3.03;;;1.55;;
45642;SDS011;31358;46.008;11.144;2024-03-06T01:44:15;3.35;;;1.48;;
45642;SDS011;31358;46.008;11.144;2024-03-06T01:46:42;2.83;;;1.45;;
45642;SDS011;31358;46.008;11.144;2024-03-06T01:49:09;3.28;;;0.88;;
45642;SDS011;31358;46.008;11.144;2024-03-06T01:51:38;2.92;;;1.50;;
45642;SDS011;31358;46.008;11.144;2024-03-06T01:54:05;3.15;;;1.10;;
45642;SDS011;31358;46.008;11.144;2024-03-06T01:56:31;1.67;;;0.85;;
45642;SDS011;31358;46.008;11.144;2024-03-06T01:58:59;1.55;;;0.90;;
45642;SDS011;31358;46.008;11.144;2024-03-06T02:01:25;1.48;;;0.88;;
45642;SDS011;31358;46.008;11.144;2024-03-06T02:03:51;1.27;;;0.80;;
45642;SDS011;31358;46.008;11.144;2024-03-06T02:06:18;1.38;;;0.80;;
45642;SDS011;31358;46.008;11.144;2024-03-06T02:08:47;1.48;;;0.60;;
45642;SDS011;31358;46.008;11.144;2024-03-06T02:11:13;1.58;;;0.32;;
45642;SDS011;31358;46.008;11.144;2024-03-06T02:13:41;1.60;;;0.47;;
45642;SDS011;31358;46.008;11.144;2024-03-06T02:16:08;1.63;;;0.75;;
45642;SDS011;31358;46.008;11.144;2024-03-06T02:18:35;1.90;;;0.47;;
45642;SDS011;31358;46.008;11.144;2024-03-06T02:21:01;0.40;;;0.30;;
45642;SDS011;31358;46.008;11.144;2024-03-06T02:23:27;0.30;;;0.30;;
45642;SDS011;31358;46.008;11.144;2024-03-06T02:25:53;0.30;;;0.25;;
45642;SDS011;31358;46.008;11.144;2024-03-06T02:28:19;1.17;;;0.45;;
45642;SDS011;31358;46.008;11.144;2024-03-06T02:30:44;1.42;;;0.40;;
45642;SDS011;31358;46.008;11.144;2024-03-06T02:33:14;1.48;;;0.32;;
45642;SDS011;31358;46.008;11.144;2024-03-06T02:35:40;2.42;;;0.30;;
45642;SDS011;31358;46.008;11.144;2024-03-06T02:38:05;1.02;;;0.50;;
45642;SDS011;31358;46.008;11.144;2024-03-06T02:40:31;0.70;;;0.28;;
45642;SDS011;31358;46.008;11.144;2024-03-06T02:42:57;0.47;;;0.22;;
45642;SDS011;31358;46.008;11.144;2024-03-06T02:45:23;0.10;;;0.10;;
45642;SDS011;31358;46.008;11.144;2024-03-06T02:47:48;0.47;;;0.20;;
45642;SDS011;31358;46.008;11.144;2024-03-06T02:50:14;0.85;;;0.30;;
45642;SDS011;31358;46.008;11.144;2024-03-06T02:52:40;1.63;;;0.17;;
45642;SDS011;31358;46.008;11.144;2024-03-06T02:55:06;0.40;;;0.30;;
45642;SDS011;31358;46.008;11.144;2024-03-06T02:57:32;0.35;;;0.13;;
45642;SDS011;31358;46.008;11.144;2024-03-06T02:59:58;0.20;;;0.15;;
45642;SDS011;31358;46.008;11.144;2024-03-06T03:02:24;0.40;;;0.30;;
45642;SDS011;31358;46.008;11.144;2024-03-06T03:04:50;0.47;;;0.10;;
45642;SDS011;31358;46.008;11.144;2024-03-06T03:07:17;1.05;;;0.30;;
45642;SDS011;31358;46.008;11.144;2024-03-06T03:09:44;2.58;;;0.20;;
45642;SDS011;31358;46.008;11.144;2024-03-06T03:12:10;1.15;;;0.20;;
45642;SDS011;31358;46.008;11.144;2024-03-06T03:14:36;0.65;;;0.25;;
45642;SDS011;31358;46.008;11.144;2024-03-06T03:17:02;0.47;;;0.20;;
45642;SDS011;31358;46.008;11.144;2024-03-06T03:19:30;0.45;;;0.10;;
45642;SDS011;31358;46.008;11.144;2024-03-06T03:21:56;0.35;;;0.13;;
45642;SDS011;31358;46.008;11.144;2024-03-06T03:24:23;0.20;;;0.00;;
45642;SDS011;31358;46.008;11.144;2024-03-06T03:26:51;0.55;;;0.20;;
45642;SDS011;31358;46.008;11.144;2024-03-06T03:29:17;0.22;;;0.10;;
45642;SDS011;31358;46.008;11.144;2024-03-06T03:31:43;0.10;;;0.08;;
45642;SDS011;31358;46.008;11.144;2024-03-06T03:34:09;0.65;;;0.20;;
45642;SDS011;31358;46.008;11.144;2024-03-06T03:36:39;0.47;;;0.38;;
45642;SDS011;31358;46.008;11.144;2024-03-06T03:39:09;0.25;;;0.10;;
45642;SDS011;31358;46.008;11.144;2024-03-06T03:41:44;0.00;;;0.00;;
45642;SDS011;31358;46.008;11.144;2024-03-06T03:44:11;0.60;;;0.20;;
45642;SDS011;31358;46.008;11.144;2024-03-06T03:46:38;2.00;;;0.35;;
45642;SDS011;31358;46.008;11.144;2024-03-06T03:49:04;0.47;;;0.10;;
45642;SDS011;31358;46.008;11.144;2024-03-06T03:51:29;0.30;;;0.10;;
45642;SDS011;31358;46.008;11.144;2024-03-06T03:53:55;1.02;;;0.28;;
45642;SDS011;31358;46.008;11.144;2024-03-06T03:56:21;0.47;;;0.10;;
45642;SDS011;31358;46.008;11.144;2024-03-06T03:58:47;0.45;;;0.10;;
45642;SDS011;31358;46.008;11.144;2024-03-06T04:01:12;0.15;;;0.10;;
45642;SDS011;31358;46.008;11.144;2024-03-06T04:03:38;3.63;;;1.42;;
45642;SDS011;31358;46.008;11.144;2024-03-06T04:06:05;0.20;;;0.03;;
45642;SDS011;31358;46.008;11.144;2024-03-06T04:08:32;0.63;;;0.20;;
45642;SDS011;31358;46.008;11.144;2024-03-06T04:10:58;0.43;;;0.10;;
45642;SDS011;31358;46.008;11.144;2024-03-06T04:13:23;0.52;;;0.10;;
45642;SDS011;31358;46.008;11.144;2024-03-06T04:15:49;0.57;;;0.20;;
45642;SDS011;31358;46.008;11.144;2024-03-06T04:18:15;0.68;;;0.20;;
45642;SDS011;31358;46.008;11.144;2024-03-06T04:20:40;2.72;;;0.40;;
45642;SDS011;31358;46.008;11.144;2024-03-06T04:23:06;0.75;;;0.10;;
45642;SDS011;31358;46.008;11.144;2024-03-06T04:25:34;0.43;;;0.10;;
45642;SDS011;31358;46.008;11.144;2024-03-06T04:28:00;0.30;;;0.20;;
45642;SDS011;31358;46.008;11.144;2024-03-06T04:30:27;1.40;;;0.35;;
45642;SDS011;31358;46.008;11.144;2024-03-06T04:32:53;0.10;;;0.10;;
45642;SDS011;31358;46.008;11.144;2024-03-06T04:35:18;0.00;;;0.00;;
45642;SDS011;31358;46.008;11.144;2024-03-06T04:37:44;0.73;;;0.20;;
45642;SDS011;31358;46.008;11.144;2024-03-06T04:40:10;0.28;;;0.20;;
45642;SDS011;31358;46.008;11.144;2024-03-06T04:42:36;0.80;;;0.17;;
45642;SDS011;31358;46.008;11.144;2024-03-06T04:45:10;0.43;;;0.22;;
45642;SDS011;31358;46.008;11.144;2024-03-06T04:47:37;0.63;;;0.25;;
45642;SDS011;31358;46.008;11.144;2024-03-06T04:50:03;1.08;;;0.20;;
45642;SDS011;31358;46.008;11.144;2024-03-06T04:52:33;0.60;;;0.30;;
45642;SDS011;31358;46.008;11.144;2024-03-06T04:54:59;1.45;;;0.20;;
45642;SDS011;31358;46.008;11.144;2024-03-06T04:57:25;0.30;;;0.10;;
45642;SDS011;31358;46.008;11.144;2024-03-06T04:59:51;0.77;;;0.10;;
45642;SDS011;31358;46.008;11.144;2024-03-06T05:02:17;0.10;;;0.10;;
45642;SDS011;31358;46.008;11.144;2024-03-06T05:04:43;0.40;;;0.13;;
45642;SDS011;31358;46.008;11.144;2024-03-06T05:07:08;0.75;;;0.20;;
45642;SDS011;31358;46.008;11.144;2024-03-06T05:09:34;0.40;;;0.20;;
45642;SDS011;31358;46.008;11.144;2024-03-06T05:12:00;0.57;;;0.20;;
45642;SDS011;31358;46.008;11.144;2024-03-06T05:14:26;0.05;;;0.05;;
45642;SDS011;31358;46.008;11.144;2024-03-06T05:16:51;0.30;;;0.20;;
45642;SDS011;31358;46.008;11.144;2024-03-06T05:19:18;0.45;;;0.20;;
45642;SDS011;31358;46.008;11.144;2024-03-06T05:21:43;0.13;;;0.05;;
45642;SDS011;31358;46.008;11.144;2024-03-06T05:24:09;0.60;;;0.28;;
45642;SDS011;31358;46.008;11.144;2024-03-06T05:26:35;2.30;;;0.30;;
45642;SDS011;31358;46.008;11.144;2024-03-06T05:29:00;0.95;;;0.30;;
45642;SDS011;31358;46.008;11.144;2024-03-06T05:31:26;0.47;;;0.10;;
45642;SDS011;31358;46.008;11.144;2024-03-06T05:33:52;0.30;;;0.20;;
45642;SDS011;31358;46.008;11.144;2024-03-06T05:36:17;0.38;;;0.20;;
45642;SDS011;31358;46.008;11.144;2024-03-06T05:38:46;0.10;;;0.10;;
45642;SDS011;31358;46.008;11.144;2024-03-06T05:41:13;1.15;;;0.15;;
45642;SDS011;31358;46.008;11.144;2024-03-06T05:43:39;2.00;;;1.05;;
45642;SDS011;31358;46.008;11.144;2024-03-06T05:46:06;2.40;;;0.88;;
45642;SDS011;31358;46.008;11.144;2024-03-06T05:48:31;1.13;;;0.52;;
45642;SDS011;31358;46.008;11.144;2024-03-06T05:50:58;8.50;;;0.88;;
45642;SDS011;31358;46.008;11.144;2024-03-06T05:53:24;2.30;;;0.30;;
45642;SDS011;31358;46.008;11.144;2024-03-06T05:55:50;0.77;;;0.30;;
45642;SDS011;31358;46.008;11.144;2024-03-06T05:58:16;0.60;;;0.22;;
45642;SDS011;31358;46.008;11.144;2024-03-06T06:00:45;0.35;;;0.10;;
45642;SDS011;31358;46.008;11.144;2024-03-06T06:03:11;1.13;;;0.55;;
45642;SDS011;31358;46.008;11.144;2024-03-06T06:05:38;1.30;;;0.60;;
45642;SDS011;31358;46.008;11.144;2024-03-06T06:08:04;1.90;;;0.52;;
45642;SDS011;31358;46.008;11.144;2024-03-06T06:10:30;0.73;;;0.40;;
45642;SDS011;31358;46.008;11.144;2024-03-06T06:12:56;3.70;;;0.60;;
45642;SDS011;31358;46.008;11.144;2024-03-06T06:15:22;1.98;;;0.65;;
45642;SDS011;31358;46.008;11.144;2024-03-06T06:17:47;1.77;;;0.82;;
45642;SDS011;31358;46.008;11.144;2024-03-06T06:20:13;1.55;;;0.73;;
45642;SDS011;31358;46.008;11.144;2024-03-06T06:22:41;2.22;;;0.70;;
45642;SDS011;31358;46.008;11.144;2024-03-06T06:25:07;2.50;;;0.80;;
45642;SDS011;31358;46.008;11.144;2024-03-06T06:27:33;3.10;;;0.65;;
45642;SDS011;31358;46.008;11.144;2024-03-06T06:29:58;1.23;;;0.40;;
45642;SDS011;31358;46.008;11.144;2024-03-06T06:32:24;1.73;;;0.70;;
45642;SDS011;31358;46.008;11.144;2024-03-06T06:34:50;2.13;;;0.75;;
45642;SDS011;31358;46.008;11.144;2024-03-06T06:37:16;0.73;;;0.40;;
45642;SDS011;31358;46.008;11.144;2024-03-06T06:39:44;0.85;;;0.30;;
45642;SDS011;31358;46.008;11.144;2024-03-06T06:42:10;1.48;;;0.50;;
45642;SDS011;31358;46.008;11.144;2024-03-06T06:44:36;1.33;;;0.65;;
45642;SDS011;31358;46.008;11.144;2024-03-06T06:47:02;3.80;;;0.75;;
45642;SDS011;31358;46.008;11.144;2024-03-06T06:49:28;0.98;;;0.40;;
45642;SDS011;31358;46.008;11.144;2024-03-06T06:51:53;0.88;;;0.40;;
45642;SDS011;31358;46.008;11.144;2024-03-06T06:54:19;2.15;;;0.63;;
45642;SDS011;31358;46.008;11.144;2024-03-06T06:56:45;0.90;;;0.30;;
45642;SDS011;31358;46.008;11.144;2024-03-06T06:59:10;0.22;;;0.20;;
45642;SDS011;31358;46.008;11.144;2024-03-06T07:01:38;1.38;;;0.63;;
45642;SDS011;31358;46.008;11.144;2024-03-06T07:04:05;0.68;;;0.35;;
45642;SDS011;31358;46.008;11.144;2024-03-06T07:06:31;3.53;;;0.50;;
45642;SDS011;31358;46.008;11.144;2024-03-06T07:08:57;3.88;;;1.13;;
45642;SDS011;31358;46.008;11.144;2024-03-06T07:11:23;1.17;;;0.50;;
45642;SDS011;31358;46.008;11.144;2024-03-06T07:13:49;0.80;;;0.40;;
45642;SDS011;31358;46.008;11.144;2024-03-06T07:16:14;0.90;;;0.28;;
45642;SDS011;31358;46.008;11.144;2024-03-06T07:18:40;0.93;;;0.43;;
45642;SDS011;31358;46.008;11.144;2024-03-06T07:21:06;0.63;;;0.28;;
45642;SDS011;31358;46.008;11.144;2024-03-06T07:23:32;1.48;;;0.50;;
45642;SDS011;31358;46.008;11.144;2024-03-06T07:25:58;1.25;;;0.45;;
45642;SDS011;31358;46.008;11.144;2024-03-06T07:28:24;0.73;;;0.30;;
45642;SDS011;31358;46.008;11.144;2024-03-06T07:30:50;0.65;;;0.30;;
45642;SDS011;31358;46.008;11.144;2024-03-06T07:33:16;0.28;;;0.10;;
45642;SDS011;31358;46.008;11.144;2024-03-06T07:35:42;1.70;;;0.73;;
45642;SDS011;31358;46.008;11.144;2024-03-06T07:38:08;0.45;;;0.30;;
45642;SDS011;31358;46.008;11.144;2024-03-06T07:40:33;1.08;;;0.50;;
45642;SDS011;31358;46.008;11.144;2024-03-06T07:42:59;1.67;;;0.65;;
45642;SDS011;31358;46.008;11.144;2024-03-06T07:45:25;0.93;;;0.50;;
45642;SDS011;31358;46.008;11.144;2024-03-06T07:47:51;1.02;;;0.43;;
45642;SDS011;31358;46.008;11.144;2024-03-06T07:50:17;0.70;;;0.32;;
45642;SDS011;31358;46.008;11.144;2024-03-06T07:52:47;1.15;;;0.40;;
45642;SDS011;31358;46.008;11.144;2024-03-06T07:55:12;1.25;;;0.50;;
45642;SDS011;31358;46.008;11.144;2024-03-06T07:57:38;0.80;;;0.60;;
45642;SDS011;31358;46.008;11.144;2024-03-06T08:00:05;2.25;;;0.98;;
45642;SDS011;31358;46.008;11.144;2024-03-06T08:02:39;2.65;;;1.15;;
45642;SDS011;31358;46.008;11.144;2024-03-06T08:05:09;2.75;;;0.95;;
45642;SDS011;31358;46.008;11.144;2024-03-06T08:07:37;1.38;;;0.75;;
45642;SDS011;31358;46.008;11.144;2024-03-06T08:10:07;1.67;;;0.80;;
45642;SDS011;31358;46.008;11.144;2024-03-06T08:12:43;1.83;;;0.90;;
45642;SDS011;31358;46.008;11.144;2024-03-06T08:15:10;3.75;;;1.15;;
45642;SDS011;31358;46.008;11.144;2024-03-06T08:17:37;3.80;;;0.80;;
45642;SDS011;31358;46.008;11.144;2024-03-06T08:20:05;2.88;;;1.42;;
45642;SDS011;31358;46.008;11.144;2024-03-06T08:22:33;3.92;;;0.90;;
45642;SDS011;31358;46.008;11.144;2024-03-06T08:25:12;2.58;;;0.90;;
45642;SDS011;31358;46.008;11.144;2024-03-06T08:27:41;1.58;;;0.60;;
45642;SDS011;31358;46.008;11.144;2024-03-06T08:30:07;1.35;;;0.73;;
45642;SDS011;31358;46.008;11.144;2024-03-06T08:32:34;1.90;;;0.80;;
45642;SDS011;31358;46.008;11.144;2024-03-06T08:35:04;1.55;;;0.90;;
45642;SDS011;31358;46.008;11.144;2024-03-06T08:37:39;1.95;;;0.70;;
45642;SDS011;31358;46.008;11.144;2024-03-06T08:40:06;1.83;;;0.60;;
45642;SDS011;31358;46.008;11.144;2024-03-06T08:42:45;2.28;;;0.47;;
45642;SDS011;31358;46.008;11.144;2024-03-06T08:45:14;1.20;;;0.65;;
45642;SDS011;31358;46.008;11.144;2024-03-06T08:47:44;1.25;;;0.57;;
45642;SDS011;31358;46.008;11.144;2024-03-06T08:50:10;1.40;;;0.60;;
45642;SDS011;31358;46.008;11.144;2024-03-06T08:52:37;2.85;;;1.38;;
45642;SDS011;31358;46.008;11.144;2024-03-06T08:55:03;1.25;;;0.65;;
45642;SDS011;31358;46.008;11.144;2024-03-06T08:57:29;1.27;;;0.63;;
45642;SDS011;31358;46.008;11.144;2024-03-06T08:59:56;1.33;;;0.50;;
45642;SDS011;31358;46.008;11.144;2024-03-06T09:02:23;2.60;;;1.00;;
45642;SDS011;31358;46.008;11.144;2024-03-06T09:04:48;1.75;;;0.70;;
45642;SDS011;31358;46.008;11.144;2024-03-06T09:07:16;2.55;;;0.90;;
45642;SDS011;31358;46.008;11.144;2024-03-06T09:09:42;2.50;;;0.80;;
45642;SDS011;31358;46.008;11.144;2024-03-06T09:12:09;2.78;;;1.40;;
45642;SDS011;31358;46.008;11.144;2024-03-06T09:14:35;4.40;;;1.92;;
45642;SDS011;31358;46.008;11.144;2024-03-06T09:17:02;3.35;;;1.40;;
45642;SDS011;31358;46.008;11.144;2024-03-06T09:19:29;3.08;;;1.80;;
45642;SDS011;31358;46.008;11.144;2024-03-06T09:21:55;3.30;;;1.10;;
45642;SDS011;31358;46.008;11.144;2024-03-06T09:24:21;2.40;;;0.90;;
45642;SDS011;31358;46.008;11.144;2024-03-06T09:26:48;2.13;;;0.80;;
45642;SDS011;31358;46.008;11.144;2024-03-06T09:29:14;1.98;;;0.52;;
45642;SDS011;31358;46.008;11.144;2024-03-06T09:31:41;5.72;;;1.95;;
45642;SDS011;31358;46.008;11.144;2024-03-06T09:34:07;6.85;;;1.77;;
45642;SDS011;31358;46.008;11.144;2024-03-06T09:36:35;6.85;;;2.65;;
45642;SDS011;31358;46.008;11.144;2024-03-06T09:39:01;7.57;;;3.25;;
45642;SDS011;31358;46.008;11.144;2024-03-06T09:41:29;3.15;;;1.25;;
45642;SDS011;31358;46.008;11.144;2024-03-06T09:43:55;1.60;;;0.77;;
45642;SDS011;31358;46.008;11.144;2024-03-06T09:46:21;10.27;;;5.47;;
45642;SDS011;31358;46.008;11.144;2024-03-06T09:48:47;4.30;;;2.10;;
45642;SDS011;31358;46.008;11.144;2024-03-06T09:51:14;6.43;;;3.63;;
45642;SDS011;31358;46.008;11.144;2024-03-06T09:53:40;3.95;;;1.58;;
45642;SDS011;31358;46.008;11.144;2024-03-06T09:56:08;3.03;;;1.00;;
45642;SDS011;31358;46.008;11.144;2024-03-06T09:58:37;2.75;;;0.98;;
45642;SDS011;31358;46.008;11.144;2024-03-06T10:01:03;2.33;;;0.82;;
45642;SDS011;31358;46.008;11.144;2024-03-06T10:03:32;2.55;;;1.00;;
45642;SDS011;31358;46.008;11.144;2024-03-06T10:05:59;2.28;;;0.98;;
45642;SDS011;31358;46.008;11.144;2024-03-06T10:08:25;2.05;;;0.93;;
45642;SDS011;31358;46.008;11.144;2024-03-06T10:10:51;2.63;;;1.15;;
45642;SDS011;31358;46.008;11.144;2024-03-06T10:13:17;2.92;;;0.73;;
45642;SDS011;31358;46.008;11.144;2024-03-06T10:15:56;2.42;;;0.80;;
45642;SDS011;31358;46.008;11.144;2024-03-06T10:18:26;3.70;;;1.05;;
45642;SDS011;31358;46.008;11.144;2024-03-06T10:20:53;2.60;;;1.00;;
45642;SDS011;31358;46.008;11.144;2024-03-06T10:23:19;1.92;;;0.60;;
45642;SDS011;31358;46.008;11.144;2024-03-06T10:25:48;1.58;;;0.65;;
45642;SDS011;31358;46.008;11.144;2024-03-06T10:28:17;1.92;;;0.70;;
45642;SDS011;31358;46.008;11.144;2024-03-06T10:30:44;1.25;;;0.68;;
45642;SDS011;31358;46.008;11.144;2024-03-06T10:33:14;2.03;;;0.80;;
45642;SDS011;31358;46.008;11.144;2024-03-06T10:35:44;2.33;;;1.13;;
45642;SDS011;31358;46.008;11.144;2024-03-06T10:38:11;1.83;;;0.90;;
45642;SDS011;31358;46.008;11.144;2024-03-06T10:40:38;2.33;;;1.05;;
45642;SDS011;31358;46.008;11.144;2024-03-06T10:43:05;2.80;;;0.82;;
45642;SDS011;31358;46.008;11.144;2024-03-06T10:45:34;1.23;;;0.60;;
45642;SDS011;31358;46.008;11.144;2024-03-06T10:48:07;1.88;;;0.80;;
45642;SDS011;31358;46.008;11.144;2024-03-06T10:50:36;1.58;;;0.70;;
45642;SDS011;31358;46.008;11.144;2024-03-06T10:53:07;2.42;;;0.73;;
45642;SDS011;31358;46.008;11.144;2024-03-06T10:55:35;2.80;;;0.70;;
45642;SDS011;31358;46.008;11.144;2024-03-06T10:58:02;1.65;;;0.68;;
45642;SDS011;31358;46.008;11.144;2024-03-06T11:00:33;1.67;;;0.70;;
45642;SDS011;31358;46.008;11.144;2024-03-06T11:03:02;1.35;;;0.73;;
45642;SDS011;31358;46.008;11.144;2024-03-06T11:05:36;1.73;;;0.80;;
45642;SDS011;31358;46.008;11.144;2024-03-06T11:10:36;2.55;;;0.57;;
45642;SDS011;31358;46.008;11.144;2024-03-06T11:15:51;2.90;;;0.43;;
45642;SDS011;31358;46.008;11.144;2024-03-06T11:23:33;2.08;;;0.52;;
45642;SDS011;31358;46.008;11.144;2024-03-06T11:26:03;1.25;;;0.60;;
45642;SDS011;31358;46.008;11.144;2024-03-06T11:33:34;1.02;;;0.47;;
45642;SDS011;31358;46.008;11.144;2024-03-06T11:41:18;0.90;;;0.30;;
45642;SDS011;31358;46.008;11.144;2024-03-06T11:43:45;1.23;;;0.43;;
45642;SDS011;31358;46.008;11.144;2024-03-06T11:46:14;1.55;;;0.30;;
45642;SDS011;31358;46.008;11.144;2024-03-06T11:48:40;0.30;;;0.20;;
45642;SDS011;31358;46.008;11.144;2024-03-06T11:51:05;0.10;;;0.10;;
45642;SDS011;31358;46.008;11.144;2024-03-06T11:53:35;1.40;;;0.32;;
45642;SDS011;31358;46.008;11.144;2024-03-06T11:56:05;1.50;;;0.30;;
45642;SDS011;31358;46.008;11.144;2024-03-06T11:58:32;1.08;;;0.43;;
45642;SDS011;31358;46.008;11.144;2024-03-06T12:00:58;0.45;;;0.30;;
45642;SDS011;31358;46.008;11.144;2024-03-06T12:03:26;0.70;;;0.30;;
45642;SDS011;31358;46.008;11.144;2024-03-06T12:05:52;0.68;;;0.30;;
45642;SDS011;31358;46.008;11.144;2024-03-06T12:08:18;0.60;;;0.10;;
45642;SDS011;31358;46.008;11.144;2024-03-06T12:10:45;0.57;;;0.20;;
45642;SDS011;31358;46.008;11.144;2024-03-06T12:13:12;1.23;;;0.43;;
45642;SDS011;31358;46.008;11.144;2024-03-06T12:15:38;1.73;;;0.55;;
45642;SDS011;31358;46.008;11.144;2024-03-06T12:18:07;1.20;;;0.40;;
45642;SDS011;31358;46.008;11.144;2024-03-06T12:20:32;0.10;;;0.10;;
45642;SDS011;31358;46.008;11.144;2024-03-06T12:22:58;0.95;;;0.30;;
45642;SDS011;31358;46.008;11.144;2024-03-06T12:25:25;1.85;;;0.10;;
45642;SDS011;31358;46.008;11.144;2024-03-06T12:27:53;0.75;;;0.20;;
45642;SDS011;31358;46.008;11.144;2024-03-06T12:30:20;1.25;;;0.47;;
45642;SDS011;31358;46.008;11.144;2024-03-06T12:33:00;1.05;;;0.40;;
45642;SDS011;31358;46.008;11.144;2024-03-06T12:35:30;1.10;;;0.45;;
45642;SDS011;31358;46.008;11.144;2024-03-06T12:37:56;1.42;;;0.57;;
45642;SDS011;31358;46.008;11.144;2024-03-06T12:40:22;0.20;;;0.10;;
45642;SDS011;31358;46.008;11.144;2024-03-06T12:42:49;0.70;;;0.30;;
45642;SDS011;31358;46.008;11.144;2024-03-06T12:45:17;0.40;;;0.20;;
45642;SDS011;31358;46.008;11.144;2024-03-06T12:47:43;1.42;;;0.22;;
45642;SDS011;31358;46.008;11.144;2024-03-06T12:50:13;0.65;;;0.35;;
45642;SDS011;31358;46.008;11.144;2024-03-06T12:52:40;0.75;;;0.40;;
45642;SDS011;31358;46.008;11.144;2024-03-06T12:55:06;0.77;;;0.28;;
45642;SDS011;31358;46.008;11.144;2024-03-06T12:57:32;0.93;;;0.57;;
45642;SDS011;31358;46.008;11.144;2024-03-06T12:59:59;0.75;;;0.35;;
45642;SDS011;31358;46.008;11.144;2024-03-06T13:02:25;0.70;;;0.30;;
45642;SDS011;31358;46.008;11.144;2024-03-06T13:04:51;0.40;;;0.10;;
45642;SDS011;31358;46.008;11.144;2024-03-06T13:07:17;0.77;;;0.20;;
45642;SDS011;31358;46.008;11.144;2024-03-06T13:09:44;0.35;;;0.25;;
45642;SDS011;31358;46.008;11.144;2024-03-06T13:12:09;0.80;;;0.30;;
45642;SDS011;31358;46.008;11.144;2024-03-06T13:14:35;1.05;;;0.30;;
45642;SDS011;31358;46.008;11.144;2024-03-06T13:17:01;0.95;;;0.38;;
45642;SDS011;31358;46.008;11.144;2024-03-06T13:19:27;0.20;;;0.10;;
45642;SDS011;31358;46.008;11.144;2024-03-06T13:21:53;1.27;;;0.38;;
45642;SDS011;31358;46.008;11.144;2024-03-06T13:24:19;0.70;;;0.20;;
45642;SDS011;31358;46.008;11.144;2024-03-06T13:26:46;0.45;;;0.20;;
45642;SDS011;31358;46.008;11.144;2024-03-06T13:29:12;7.32;;;2.88;;
45642;SDS011;31358;46.008;11.144;2024-03-06T13:31:38;1.80;;;0.75;;
45642;SDS011;31358;46.008;11.144;2024-03-06T13:34:04;3.15;;;1.30;;
45642;SDS011;31358;46.008;11.144;2024-03-06T13:36:30;2.42;;;1.00;;
45642;SDS011;31358;46.008;11.144;2024-03-06T13:38:56;6.88;;;3.30;;
45642;SDS011;31358;46.008;11.144;2024-03-06T13:41:22;1.42;;;0.68;;
45642;SDS011;31358;46.008;11.144;2024-03-06T13:43:48;1.10;;;0.40;;
45642;SDS011;31358;46.008;11.144;2024-03-06T13:46:14;0.55;;;0.20;;
45642;SDS011;31358;46.008;11.144;2024-03-06T13:48:40;4.22;;;0.50;;
45642;SDS011;31358;46.008;11.144;2024-03-06T13:51:06;0.45;;;0.20;;
45642;SDS011;31358;46.008;11.144;2024-03-06T13:53:31;1.27;;;0.38;;
45642;SDS011;31358;46.008;11.144;2024-03-06T13:55:57;7.20;;;2.05;;
45642;SDS011;31358;46.008;11.144;2024-03-06T13:58:23;3.55;;;1.00;;
45642;SDS011;31358;46.008;11.144;2024-03-06T14:00:49;1.80;;;0.40;;
45642;SDS011;31358;46.008;11.144;2024-03-06T14:03:16;6.10;;;2.17;;
45642;SDS011;31358;46.008;11.144;2024-03-06T14:05:41;0.55;;;0.35;;
45642;SDS011;31358;46.008;11.144;2024-03-06T14:08:07;0.88;;;0.30;;
45642;SDS011;31358;46.008;11.144;2024-03-06T14:10:36;0.47;;;0.20;;
45642;SDS011;31358;46.008;11.144;2024-03-06T14:13:05;1.40;;;0.40;;
45642;SDS011;31358;46.008;11.144;2024-03-06T14:15:32;0.10;;;0.10;;
45642;SDS011;31358;46.008;11.144;2024-03-06T14:17:58;0.13;;;0.08;;
45642;SDS011;31358;46.008;11.144;2024-03-06T14:20:24;2.30;;;0.13;;
45642;SDS011;31358;46.008;11.144;2024-03-06T14:22:50;0.20;;;0.13;;
45642;SDS011;31358;46.008;11.144;2024-03-06T14:25:16;0.38;;;0.10;;
45642;SDS011;31358;46.008;11.144;2024-03-06T14:27:42;1.10;;;0.40;;
45642;SDS011;31358;46.008;11.144;2024-03-06T14:30:09;1.70;;;0.25;;
45642;SDS011;31358;46.008;11.144;2024-03-06T14:32:37;2.75;;;0.40;;
45642;SDS011;31358;46.008;11.144;2024-03-06T14:35:04;0.38;;;0.20;;
45642;SDS011;31358;46.008;11.144;2024-03-06T14:37:30;0.55;;;0.17;;
45642;SDS011;31358;46.008;11.144;2024-03-06T14:39:56;0.43;;;0.20;;
45642;SDS011;31358;46.008;11.144;2024-03-06T14:42:21;0.63;;;0.20;;
45642;SDS011;31358;46.008;11.144;2024-03-06T14:44:48;0.55;;;0.30;;
45642;SDS011;31358;46.008;11.144;2024-03-06T14:47:14;0.82;;;0.30;;
45642;SDS011;31358;46.008;11.144;2024-03-06T14:49:42;0.17;;;0.17;;
45642;SDS011;31358;46.008;11.144;2024-03-06T14:52:11;2.22;;;0.60;;